AirNav   Air Wisconsin Up To $57,000 Bonus
 
 672 users online  

KMEY James G Whiting Memorial Field Airport
Mapleton, Iowa, USA

GOING TO MAPLETON?


FAA INFORMATION EFFECTIVE 01 DECEMBER 2022

Location

FAA Identifier: MEY
Lat/Long: 42-10-41.8620N 095-47-37.1230W
42-10.697700N 095-47.618717W
42.1782950,-95.7936453
(estimated)
Elevation: 1116 ft. / 340.2 m (surveyed)
Variation: 05E (1995)
From city: 1 mile N of MAPLETON, IA
Time zone: UTC -6 (UTC -5 during Daylight Saving Time)
Zip code: 51034

Airport Operations

Airport use: Open to the public
Activation date: 08/1967
Control tower: no
ARTCC: MINNEAPOLIS CENTER
FSS: FORT DODGE FLIGHT SERVICE STATION
NOTAMs facility: FOD (NOTAM-D service available)
Attendance: MON-FRI 0800-1700
Wind indicator: lighted
Segmented circle: no
Lights: ACTVT REIL RWY 20; PAPI RWY 02 & 20; MIRL RWY 02/20 - CTAF.
Beacon: white-green (lighted land airport)
Operates sunset to sunrise.

Airport Communications

CTAF/UNICOM: 122.8
SIOUX CITY APPROACH: 124.6
SIOUX CITY DEPARTURE: 124.6
  • APCH/DEP SVC PRVDD BY MINNEAPOLIS ARTCC ON FREQS 119.6/290.4 (OMAHA RCAG) WHEN SIOUX CITY ATCT CLSD.

Airport Services

Fuel available: 100
Parking: hangars and tiedowns
Airframe service: MAJOR
Powerplant service: MAJOR
Bottled oxygen: NONE
Bulk oxygen: NONE

Runway Information

Runway 2/20

Dimensions: 2801 x 60 ft. / 854 x 18 m
Surface: concrete, in fair condition
Weight bearing capacity: 
PCN 9 /R/C/W/U
Single wheel: 28.0
Double wheel: 48.0
Runway edge lights: medium intensity
RUNWAY 2  RUNWAY 20
Latitude: 42-10.488000N42-10.908850N
Longitude: 095-47.745083W095-47.491633W
Elevation: 1116.0 ft.1116.0 ft.
Traffic pattern: leftleft
Runway heading: 019 magnetic, 024 true199 magnetic, 204 true
Markings: nonprecision, in fair conditionnonprecision, in fair condition
Visual slope indicator: 2-light PAPI on left (3.75 degrees glide path)2-light PAPI on left (3.75 degrees glide path)
Runway end identifier lights: noyes
Touchdown point: yes, no lightsyes, no lights
Obstructions: 34 ft. tree, 790 ft. from runway, 175 ft. left of centerline, 17:1 slope to clear33 ft. trees, 584 ft. from runway, 131 ft. left of centerline, 11:1 slope to clear

Airport Ownership and Management from official FAA records

Ownership: Publicly-owned
Owner: CITY OF MAPLETON
513 MAIN
MAPLETON, IA 51034
Phone 712-881-1351
Manager: KARLA UHL
513 MAIN STREET
MAPLETON, IA 51034
Phone 712-881-1890

Airport Operational Statistics

Aircraft based on the field: 10
Single engine airplanes: 10
    
Aircraft operations: avg 48/week *
57% transient general aviation
43% local general aviation
* for 12-month period ending 10 August 2022

Additional Remarks

RY 20 IS CALM WIND RY.
FOR CD CTC SIOUX CITY ATCT ON 124.6 OR CALL 712-293-2482.
RWY 20 PAPI UNUSBL BYD 7 DEGS LEFT OF CNTRLN.

Instrument Procedures

NOTE: All procedures below are presented as PDF files. If you need a reader for these files, you should download the free Adobe Reader.

NOT FOR NAVIGATION. Please procure official charts for flight.
FAA instrument procedures published for use from 01 December 2022 at 0901Z to 29 December 2022 at 0900z.

 
IAPs - Instrument Approach Procedures
RNAV (GPS) RWY 02 **CHANGED**   download (207KB)
RNAV (GPS) RWY 20 **CHANGED**   download (220KB)
NOTE: Special Take-Off Minimums/Departure Procedures apply   download (421KB)

Other nearby airports with instrument procedures:

KDNS - Denison Municipal Airport (22 nm SE)
KSUX - Sioux Gateway Airport/Brigadier General Bud Day Field (29 nm NW)
KTQE - Tekamah Municipal Airport (30 nm SW)
KCKP - Cherokee County Regional Airport (35 nm N)
KSLB - Storm Lake Municipal Airport (35 nm NE)
 
Loc | Ops | Rwys | IFR | FBO | Links
Com | Nav | Svcs | Stats | Notes
Area around KMEY (James G Whiting Memorial Field Airport)
 
Road maps at: MapQuest Bing Google
 
Aerial photo
WARNING: Photo may not be current or correct
Aerial photo of KMEY (James G Whiting Memorial Field Airport)
Photo by Iden Mersereau
Photo taken 08-Jul-2018
looking east.

Do you have a better or more recent aerial photo of James G Whiting Memorial Field Airport that you would like to share? If so, please send us your photo.

 
Sectional chart

 
Airport distance calculator
Flying to James G Whiting Memorial Field Airport? Find the distance to fly.

From to KMEY

Sunrise and sunset
Times for 06-Dec-2022
 Local
(UTC-6)
 Zulu
(UTC)
Morning civil twilight07:0713:07
Sunrise07:3813:38
Sunset16:5022:50
Evening civil twilight17:2223:22

Current date and time
Zulu (UTC)  06-Dec-2022 08:41:29
Local (UTC-6)  06-Dec-2022 02:41:29
 
METAR
KDNS 
23nm SE 
060815Z AUTO 06010KT 10SM BKN110 M05/M05 A2998 RMK AO2
KSUX 
29nm NW 
060752Z AUTO 07005KT 10SM CLR M06/M08 A3000 RMK AO2 SLP173 T10561083
KTQE 
30nm SW 
060654Z AUTO 05006KT 10SM CLR M03/M08 A2999 RMK AO2 SLP160 T10331083
KCKP 
35nm N 
060815Z AUTO 05005KT 10SM CLR M07/M09 A2999 RMK AO2 T10721086
KSLB 
36nm NE 
060815Z AUTO 05012KT 10SM CLR M07/M09 A2998 RMK AO2
KLRJ 
40nm NW 
060815Z AUTO 09004KT 10SM CLR M06/M09 A2998 RMK AO2
KHNR 
41nm SE 
060815Z AUTO 04010KT 10SM CLR M05/M07 A2996 RMK A01
TAF
KSUX 
29nm NW 
060520Z 0606/0706 07005KT P6SM OVC210 FM060900 VRB05KT P6SM -SHSN SCT060 BKN190 FM061200 VRB03KT P6SM -SHSN SCT060 OVC160 FM061500 15005KT P6SM BKN190 FM061700 21009KT P6SM BKN170 FM062000 28007KT P6SM SCT240
NOTAMs
Click for the latest NOTAMs
NOTAMs are issued by the DoD/FAA and will open in a separate window not controlled by AirNav.

 

 
 

FBO, Fuel Providers, and Aircraft Ground Support

  
 Business Name 
 
 Contact 
 
 Services / Description 
 
Fuel Prices
 
Comments
  
Ashley Flying Service 712-881-2764
no information available

If you are affiliated with Ashley Flying Service and would like to show here your services, contact info, web link, logo, and more, click here
100LL
SS $4.85 
 Updated 06-May-2022
 
   write
SS=Self service
Update Fuel Prices
 

Would you like to see your business listed on this page?

 If your business provides an interesting product or service to pilots, flight crews, aircraft, or users of the James G Whiting Memorial Field Airport, you should consider listing it here.  To start the listing process, click on the button below
 
Add a business
 

Other Pages about James G Whiting Memorial Field Airport

www.mapleton.com/airport.htm
Page from the Iowa Airport Directory
 
Update a link
 
Copyright © AirNav, LLC. All rights reserved. Privacy Policy  Contact